Temp: 10.0°C   Baro: 1017.6mb
  Wind: 8.1mph   Dir: NNW (342°)
  Rain: 0.0mm (0.0mm/hr)
  Sun: 236W/m2  Humidity: 60%

Historic data

Bath Spa Weather Station Historical Data
Daily Summary for March 20, 2023 Units:  Both    English   Metric
Daily Weekly Monthly Yearly Custom
  High: Low: Average:
Temperature: 53.8 °F /  12.1 °C 43.8 °F /  6.6 °C 50.1 °F /  10.1 °C
Dew Point: 50.9 °F /  10.5 °C 39.2 °F /  4 °C 47.1 °F /  8.4 °C
Humidity: 92% 83% 89%
Wind Speed: 9.7mph /  15.6km/h - 4.2mph /  6.8km/h
Wind Gust: 14mph /  22.5km/h - -
Wind- - SSW
Pressure: 30.09 in /  1018.8 hPa 29.89 in /  1012.1 hPa -
Precipitation: 0.12 in /  3.05 mm    
Historical Graphs
 
 
Tabular Data for March 20, 2023
Time Temperature Dew Point Pressure Wind Wind Speed Wind Gust Humidity Rainfall Rate (Hourly) solar
00:09 44.8 °F /  7.1 °C 39.9 °F /  4.4 °C 30.09in /  1018.8hPa Calm     83% 0.00in /  0mm 0 W/m2
00:14 44.6 °F /  7 °C 39.7 °F /  4.3 °C 30.09in /  1018.8hPa Calm     83% 0.00in /  0mm 0 W/m2
00:19 44.6 °F /  7 °C 39.7 °F /  4.3 °C 30.09in /  1018.8hPa Calm     83% 0.00in /  0mm 0 W/m2
00:24 44.4 °F /  6.9 °C 39.6 °F /  4.2 °C 30.08in /  1018.5hPa Calm     83% 0.00in /  0mm 0 W/m2
00:29 44.4 °F /  6.9 °C 39.6 °F /  4.2 °C 30.08in /  1018.5hPa Calm     83% 0.00in /  0mm 0 W/m2
00:34 44.2 °F /  6.8 °C 39.4 °F /  4.1 °C 30.08in /  1018.5hPa Calm     83% 0.00in /  0mm 0 W/m2
00:39 44.2 °F /  6.8 °C 39.4 °F /  4.1 °C 30.08in /  1018.5hPa Calm     83% 0.00in /  0mm 0 W/m2
00:44 44.1 °F /  6.7 °C 39.2 °F /  4 °C 30.08in /  1018.5hPa Calm     83% 0.00in /  0mm 0 W/m2
00:49 43.9 °F /  6.6 °C 39.2 °F /  4 °C 30.08in /  1018.5hPa Calm     83.6% 0.00in /  0mm 0 W/m2
00:54 43.9 °F /  6.6 °C 39.4 °F /  4.1 °C 30.07in /  1018.2hPa Calm     84% 0.00in /  0mm 0 W/m2
00:59 43.8 °F /  6.6 °C 39.3 °F /  4.1 °C 30.07in /  1018.2hPa WSW 0.4mph /  0.6km/h 2mph /  3.2km/h 84% 0.00in /  0mm 0 W/m2
01:04 43.9 °F /  6.6 °C 39.4 °F /  4.1 °C 30.07in /  1018.2hPa WSW 0.4mph /  0.6km/h 2mph /  3.2km/h 84% 0.00in /  0mm 0 W/m2
01:09 44.1 °F /  6.7 °C 39.7 °F /  4.3 °C 30.07in /  1018.2hPa WSW 1.4mph /  2.3km/h 3mph /  4.8km/h 84.6% 0.00in /  0mm 0 W/m2
01:14 44.2 °F /  6.8 °C 40.1 °F /  4.5 °C 30.07in /  1018.2hPa WSW 2.4mph /  3.9km/h 5mph /  8km/h 85% 0.00in /  0mm 0 W/m2
01:19 44.5 °F /  6.9 °C 40.4 °F /  4.7 °C 30.07in /  1018.2hPa NW 4mph /  6.4km/h 6mph /  9.7km/h 85% 0.00in /  0mm 0 W/m2
01:24 45 °F /  7.2 °C 40.6 °F /  4.8 °C 30.07in /  1018.2hPa WNW 3.7mph /  6km/h 7mph /  11.3km/h 84.6% 0.00in /  0mm 0 W/m2
01:29 45.2 °F /  7.3 °C 40.7 °F /  4.8 °C 30.07in /  1018.2hPa WNW 2.5mph /  4km/h 6mph /  9.7km/h 84% 0.00in /  0mm 0 W/m2
01:34 45.3 °F /  7.4 °C 40.8 °F /  4.9 °C 30.07in /  1018.2hPa West 2.4mph /  3.9km/h 5mph /  8km/h 84% 0.00in /  0mm 0 W/m2
01:39 45.5 °F /  7.5 °C 41 °F /  5 °C 30.07in /  1018.2hPa West 2mph /  3.2km/h 4mph /  6.4km/h 84% 0.00in /  0mm 0 W/m2
01:44 45.7 °F /  7.6 °C 41.2 °F /  5.1 °C 30.07in /  1018.2hPa West 2.6mph /  4.2km/h 5mph /  8km/h 84% 0.00in /  0mm 0 W/m2
01:49 45.8 °F /  7.7 °C 41.3 °F /  5.2 °C 30.07in /  1018.2hPa West 2mph /  3.2km/h 4mph /  6.4km/h 84% 0.00in /  0mm 0 W/m2
01:54 45.9 °F /  7.7 °C 41.4 °F /  5.2 °C 30.07in /  1018.2hPa West 2.4mph /  3.9km/h 4mph /  6.4km/h 84% 0.00in /  0mm 0 W/m2
01:59 45.9 °F /  7.7 °C 41.4 °F /  5.2 °C 30.06in /  1017.8hPa West 3.5mph /  5.6km/h 8mph /  12.9km/h 84% 0.00in /  0mm 0 W/m2
02:04 46 °F /  7.8 °C 41.5 °F /  5.3 °C 30.06in /  1017.8hPa WNW 3.3mph /  5.3km/h 8mph /  12.9km/h 84% 0.00in /  0mm 0 W/m2
02:09 46.2 °F /  7.9 °C 41.7 °F /  5.4 °C 30.06in /  1017.8hPa West 2.1mph /  3.4km/h 5mph /  8km/h 84% 0.00in /  0mm 0 W/m2
02:14 46.3 °F /  7.9 °C 41.8 °F /  5.4 °C 30.06in /  1017.8hPa WNW 3.4mph /  5.5km/h 7mph /  11.3km/h 84% 0.00in /  0mm 0 W/m2
02:19 46.4 °F /  8 °C 41.9 °F /  5.5 °C 30.06in /  1017.8hPa West 3.2mph /  5.1km/h 5mph /  8km/h 84% 0.00in /  0mm 0 W/m2
02:24 46.6 °F /  8.1 °C 42.1 °F /  5.6 °C 30.06in /  1017.8hPa West 3.7mph /  6km/h 7mph /  11.3km/h 84% 0.00in /  0mm 0 W/m2
02:29 46.8 °F /  8.2 °C 42.3 °F /  5.7 °C 30.06in /  1017.8hPa SW 2.5mph /  4km/h 7mph /  11.3km/h 84% 0.00in /  0mm 0 W/m2
02:34 46.8 °F /  8.2 °C 42.3 °F /  5.7 °C 30.06in /  1017.8hPa SW 3mph /  4.8km/h 5mph /  8km/h 84% 0.00in /  0mm 0 W/m2
02:39 46.9 °F /  8.3 °C 42.4 °F /  5.8 °C 30.05in /  1017.5hPa SW 2.5mph /  4km/h 8mph /  12.9km/h 84% 0.00in /  0mm 0 W/m2
02:44 46.9 °F /  8.3 °C 42.4 °F /  5.8 °C 30.05in /  1017.5hPa WSW 2.8mph /  4.5km/h 8mph /  12.9km/h 84.2% 0.00in /  0mm 0 W/m2
02:49 46.9 °F /  8.3 °C 42.6 °F /  5.9 °C 30.05in /  1017.5hPa SW 3.2mph /  5.1km/h 9mph /  14.5km/h 85% 0.00in /  0mm 0 W/m2
02:54 46.9 °F /  8.3 °C 42.6 °F /  5.9 °C 30.05in /  1017.5hPa SW 1.2mph /  1.9km/h 4mph /  6.4km/h 85% 0.00in /  0mm 0 W/m2
02:59 46.9 °F /  8.3 °C 42.6 °F /  5.9 °C 30.04in /  1017.2hPa SW 2.5mph /  4km/h 4mph /  6.4km/h 85% 0.00in /  0mm 0 W/m2
03:04 46.9 °F /  8.3 °C 42.6 °F /  5.9 °C 30.04in /  1017.2hPa SW 2.4mph /  3.9km/h 5mph /  8km/h 85% 0.00in /  0mm 0 W/m2
03:09 46.9 °F /  8.3 °C 42.8 °F /  6 °C 30.04in /  1017.2hPa SW 2.7mph /  4.3km/h 4mph /  6.4km/h 85.6% 0.00in /  0mm 0 W/m2
03:14 47 °F /  8.3 °C 43.1 °F /  6.2 °C 30.04in /  1017.2hPa SW 2.4mph /  3.9km/h 6mph /  9.7km/h 86% 0.00in /  0mm 0 W/m2
03:19 47.1 °F /  8.4 °C 43.2 °F /  6.2 °C 30.04in /  1017.2hPa SW 1.3mph /  2.1km/h 5mph /  8km/h 86% 0.00in /  0mm 0 W/m2
03:24 47.3 °F /  8.5 °C 43.3 °F /  6.3 °C 30.04in /  1017.2hPa SW 0.4mph /  0.6km/h 3mph /  4.8km/h 86% 0.00in /  0mm 0 W/m2
03:29 47.5 °F /  8.6 °C 43.5 °F /  6.4 °C 30.04in /  1017.2hPa SW 1.3mph /  2.1km/h 5mph /  8km/h 86% 0.00in /  0mm 0 W/m2
03:34 47.5 °F /  8.6 °C 43.7 °F /  6.5 °C 30.04in /  1017.2hPa SW 1.6mph /  2.6km/h 3mph /  4.8km/h 86.4% 0.00in /  0mm 0 W/m2
03:39 47.6 °F /  8.7 °C 44 °F /  6.7 °C 30.04in /  1017.2hPa SW 2mph /  3.2km/h 5mph /  8km/h 87% 0.00in /  0mm 0 W/m2
03:44 47.7 °F /  8.7 °C 44.1 °F /  6.7 °C 30.04in /  1017.2hPa WSW 2.7mph /  4.3km/h 8mph /  12.9km/h 87% 0.00in /  0mm 0 W/m2
03:49 47.7 °F /  8.7 °C 44.1 °F /  6.7 °C 30.03in /  1016.8hPa WSW 4.5mph /  7.2km/h 8mph /  12.9km/h 87% 0.00in /  0mm 0 W/m2
03:53 47.8 °F /  8.8 °C 44.3 °F /  6.8 °C 30.03in /  1016.8hPa SW 4mph /  6.4km/h 8mph /  12.9km/h 87.8% 0.00in /  0mm 0 W/m2
03:59 47.8 °F /  8.8 °C 44.4 °F /  6.9 °C 30.03in /  1016.8hPa SW 4.1mph /  6.6km/h 10mph /  16.1km/h 88% 0.00in /  0mm 0 W/m2
04:04 47.8 °F /  8.8 °C 44.4 °F /  6.9 °C 30.03in /  1016.8hPa SW 4.5mph /  7.2km/h 10mph /  16.1km/h 88% 0.00in /  0mm 0 W/m2
04:09 47.9 °F /  8.8 °C 44.5 °F /  6.9 °C 30.03in /  1016.8hPa SSW 5.8mph /  9.3km/h 11mph /  17.7km/h 88% 0.00in /  0mm 0 W/m2
04:14 48 °F /  8.9 °C 44.9 °F /  7.2 °C 30.03in /  1016.8hPa SSW 8mph /  12.9km/h 13mph /  20.9km/h 88.8% 0.00in /  0mm 0 W/m2
04:19 48 °F /  8.9 °C 45 °F /  7.2 °C 30.03in /  1016.8hPa SW 9.2mph /  14.8km/h 12mph /  19.3km/h 89% 0.00in /  0mm 0 W/m2
04:24 48 °F /  8.9 °C 45 °F /  7.2 °C 30.03in /  1016.8hPa SSW 6.6mph /  10.6km/h 12mph /  19.3km/h 89% 0.00in /  0mm 0 W/m2
04:29 48 °F /  8.9 °C 45 °F /  7.2 °C 30.03in /  1016.8hPa SSW 5.6mph /  9km/h 11mph /  17.7km/h 89% 0.00in /  0mm 0 W/m2
04:34 48 °F /  8.9 °C 45 °F /  7.2 °C 30.02in /  1016.5hPa SSW 4.9mph /  7.9km/h 11mph /  17.7km/h 89% 0.00in /  0mm 0 W/m2
04:39 48.2 °F /  9 °C 45.1 °F /  7.3 °C 30.02in /  1016.5hPa SW 5.4mph /  8.7km/h 10mph /  16.1km/h 89% 0.00in /  0mm 0 W/m2
04:44 48.3 °F /  9.1 °C 45.4 °F /  7.4 °C 30.02in /  1016.5hPa SW 6.2mph /  10km/h 14mph /  22.5km/h 90% 0.00in /  0mm 0 W/m2
04:49 48.4 °F /  9.1 °C 45.5 °F /  7.5 °C 30.02in /  1016.5hPa SSW 6mph /  9.7km/h 14mph /  22.5km/h 90% 0.00in /  0mm 0 W/m2
04:53 48.6 °F /  9.2 °C 45.7 °F /  7.6 °C 30.02in /  1016.5hPa SW 4.2mph /  6.8km/h 10mph /  16.1km/h 90% 0.00in /  0mm 0 W/m2
04:59 48.6 °F /  9.2 °C 45.7 °F /  7.6 °C 30.02in /  1016.5hPa SSW 5.4mph /  8.7km/h 11mph /  17.7km/h 90% 0.00in /  0mm 0 W/m2
05:04 48.6 °F /  9.2 °C 45.7 °F /  7.6 °C 30.02in /  1016.5hPa SW 5.5mph /  8.9km/h 11mph /  17.7km/h 90% 0.00in /  0mm 0 W/m2
05:09 48.6 °F /  9.2 °C 45.7 °F /  7.6 °C 30.02in /  1016.5hPa SW 3.8mph /  6.1km/h 9mph /  14.5km/h 90% 0.00in /  0mm 0 W/m2
05:14 48.7 °F /  9.3 °C 45.9 °F /  7.7 °C 30.02in /  1016.5hPa SSW 5.6mph /  9km/h 9mph /  14.5km/h 90% 0.00in /  0mm 0 W/m2
05:19 48.7 °F /  9.3 °C 46 °F /  7.8 °C 30.02in /  1016.5hPa SW 4mph /  6.4km/h 8mph /  12.9km/h 90.2% 0.00in /  0mm 0 W/m2
05:24 48.7 °F /  9.3 °C 46.2 °F /  7.9 °C 30.02in /  1016.5hPa SW 3.5mph /  5.6km/h 8mph /  12.9km/h 91% 0.00in /  0mm 0 W/m2
05:29 48.9 °F /  9.4 °C 46.4 °F /  8 °C 30.02in /  1016.5hPa SSW 4.1mph /  6.6km/h 9mph /  14.5km/h 91% 0.00in /  0mm 0 W/m2
05:34 48.9 °F /  9.4 °C 46.4 °F /  8 °C 30.02in /  1016.5hPa SSW 4.4mph /  7.1km/h 9mph /  14.5km/h 91% 0.00in /  0mm 0 W/m2
05:39 49 °F /  9.4 °C 46.5 °F /  8.1 °C 30.02in /  1016.5hPa SSW 3.6mph /  5.8km/h 7mph /  11.3km/h 91% 0.00in /  0mm 0 W/m2
05:44 49.1 °F /  9.5 °C 46.6 °F /  8.1 °C 30.02in /  1016.5hPa SW 5.2mph /  8.4km/h 11mph /  17.7km/h 91% 0.00in /  0mm 0 W/m2
05:49 49.2 °F /  9.6 °C 46.7 °F /  8.2 °C 30.02in /  1016.5hPa SW 7.2mph /  11.6km/h 9mph /  14.5km/h 91% 0.00in /  0mm 0 W/m2
05:54 49.3 °F /  9.6 °C 46.8 °F /  8.2 °C 30.01in /  1016.1hPa SW 4.5mph /  7.2km/h 8mph /  12.9km/h 91% 0.00in /  0mm 0 W/m2
05:59 49.4 °F /  9.7 °C 46.8 °F /  8.2 °C 30.01in /  1016.1hPa SW 5.4mph /  8.7km/h 12mph /  19.3km/h 91% 0.00in /  0mm 0 W/m2
06:04 49.5 °F /  9.7 °C 46.9 °F /  8.3 °C 30.01in /  1016.1hPa SSW 7.2mph /  11.6km/h 12mph /  19.3km/h 91% 0.00in /  0mm 0 W/m2
06:09 49.5 °F /  9.7 °C 46.9 °F /  8.3 °C 30.01in /  1016.1hPa SW 4.1mph /  6.6km/h 11mph /  17.7km/h 91% 0.00in /  0mm 0 W/m2
06:14 49.6 °F /  9.8 °C 47.1 °F /  8.4 °C 30.01in /  1016.1hPa SW 3.6mph /  5.8km/h 9mph /  14.5km/h 91% 0.00in /  0mm 0 W/m2
06:19 49.6 °F /  9.8 °C 47.1 °F /  8.4 °C 30.01in /  1016.1hPa SSW 5.8mph /  9.3km/h 11mph /  17.7km/h 91% 0.00in /  0mm 0 W/m2
06:24 49.6 °F /  9.8 °C 47.2 °F /  8.4 °C 30.01in /  1016.1hPa SW 5.8mph /  9.3km/h 11mph /  17.7km/h 91.2% 0.00in /  0mm 0 W/m2
06:29 49.8 °F /  9.9 °C 47.6 °F /  8.7 °C 30.02in /  1016.5hPa SW 4.7mph /  7.6km/h 10mph /  16.1km/h 91.8% 0.00in /  0mm 0 W/m2
06:34 49.8 °F /  9.9 °C 47.6 °F /  8.7 °C 30.02in /  1016.5hPa SW 4.5mph /  7.2km/h 7mph /  11.3km/h 91.8% 0.00in /  0mm 5 W/m2
06:39 49.8 °F /  9.9 °C 47.4 °F /  8.6 °C 30.02in /  1016.5hPa WSW 2mph /  3.2km/h 8mph /  12.9km/h 91.2% 0.00in /  0mm 5 W/m2
06:44 49.8 °F /  9.9 °C 47.4 °F /  8.6 °C 30.02in /  1016.5hPa SW 4.7mph /  7.6km/h 8mph /  12.9km/h 91.2% 0.00in /  0mm 7 W/m2
06:49 50 °F /  10 °C 47.5 °F /  8.6 °C 30.02in /  1016.5hPa SSW 4.6mph /  7.4km/h 8mph /  12.9km/h 91% 0.00in /  0mm 11 W/m2
06:54 50.2 °F /  10.1 °C 47.7 °F /  8.7 °C 30.02in /  1016.5hPa SSW 4.5mph /  7.2km/h 12mph /  19.3km/h 91% 0.00in /  0mm 12 W/m2
06:59 50.2 °F /  10.1 °C 47.7 °F /  8.7 °C 30.02in /  1016.5hPa SSW 3.4mph /  5.5km/h 7mph /  11.3km/h 91% 0.00in /  0mm 18 W/m2
07:04 50.2 °F /  10.1 °C 47.7 °F /  8.7 °C 30.02in /  1016.5hPa SW 4mph /  6.4km/h 8mph /  12.9km/h 91% 0.00in /  0mm 25 W/m2
07:09 50.4 °F /  10.2 °C 47.8 °F /  8.8 °C 30.02in /  1016.5hPa SSW 4.4mph /  7.1km/h 8mph /  12.9km/h 91% 0.00in /  0mm 30 W/m2
07:14 50.4 °F /  10.2 °C 47.8 °F /  8.8 °C 30.02in /  1016.5hPa SW 4.2mph /  6.8km/h 8mph /  12.9km/h 91% 0.00in /  0mm 28 W/m2
07:19 50.5 °F /  10.3 °C 47.9 °F /  8.8 °C 30.02in /  1016.5hPa SW 2.7mph /  4.3km/h 6mph /  9.7km/h 91% 0.00in /  0mm 28 W/m2
07:24 50.5 °F /  10.3 °C 48 °F /  8.9 °C 30.02in /  1016.5hPa SW 3.6mph /  5.8km/h 6mph /  9.7km/h 91% 0.00in /  0mm 26 W/m2
07:29 50.5 °F /  10.3 °C 48 °F /  8.9 °C 30.02in /  1016.5hPa SW 3.9mph /  6.3km/h 9mph /  14.5km/h 91% 0.00in /  0mm 40 W/m2
07:34 50.7 °F /  10.4 °C 48.2 °F /  9 °C 30.02in /  1016.5hPa SW 3.8mph /  6.1km/h 11mph /  17.7km/h 91% 0.00in /  0mm 44 W/m2
07:39 50.7 °F /  10.4 °C 48.2 °F /  9 °C 30.02in /  1016.5hPa SW 3mph /  4.8km/h 7mph /  11.3km/h 91% 0.00in /  0mm 35 W/m2
07:44 50.9 °F /  10.5 °C 48.4 °F /  9.1 °C 30.02in /  1016.5hPa SSW 5.3mph /  8.5km/h 11mph /  17.7km/h 91% 0.00in /  0mm 46 W/m2
07:49 51 °F /  10.6 °C 48.5 °F /  9.2 °C 30.02in /  1016.5hPa SW 5.9mph /  9.5km/h 10mph /  16.1km/h 91% 0.00in /  0mm 65 W/m2
07:54 51.1 °F /  10.6 °C 48.6 °F /  9.2 °C 30.02in /  1016.5hPa SW 5.8mph /  9.3km/h 10mph /  16.1km/h 91% 0.00in /  0mm 86 W/m2
07:59 51.1 °F /  10.6 °C 48.6 °F /  9.2 °C 30.02in /  1016.5hPa SW 5.2mph /  8.4km/h 8mph /  12.9km/h 91% 0.00in /  0mm 90 W/m2
08:04 51.3 °F /  10.7 °C 48.7 °F /  9.3 °C 30.02in /  1016.5hPa SW 3.9mph /  6.3km/h 11mph /  17.7km/h 91% 0.00in /  0mm 77 W/m2
08:09 51.3 °F /  10.7 °C 48.7 °F /  9.3 °C 30.02in /  1016.5hPa SW 5.6mph /  9km/h 9mph /  14.5km/h 91% 0.00in /  0mm 65 W/m2
08:14 51.4 °F /  10.8 °C 48.9 °F /  9.4 °C 30.02in /  1016.5hPa SSW 6.4mph /  10.3km/h 11mph /  17.7km/h 91% 0.00in /  0mm 69 W/m2
08:19 51.4 °F /  10.8 °C 48.6 °F /  9.2 °C 30.02in /  1016.5hPa SW 3.7mph /  6km/h 7mph /  11.3km/h 90% 0.00in /  0mm 70 W/m2
08:24 51.4 °F /  10.8 °C 48.7 °F /  9.3 °C 30.03in /  1016.8hPa SW 5.3mph /  8.5km/h 12mph /  19.3km/h 90.2% 0.00in /  0mm 54 W/m2
08:29 51.5 °F /  10.8 °C 48.7 °F /  9.3 °C 30.02in /  1016.5hPa SSW 5.8mph /  9.3km/h 11mph /  17.7km/h 90% 0.00in /  0mm 54 W/m2
08:34 51.6 °F /  10.9 °C 48.7 °F /  9.3 °C 30.03in /  1016.8hPa SSW 2.1mph /  3.4km/h 10mph /  16.1km/h 90% 0.00in /  0mm 54 W/m2
08:39 51.6 °F /  10.9 °C 48.7 °F /  9.3 °C 30.03in /  1016.8hPa SSW 3.5mph /  5.6km/h 9mph /  14.5km/h 90% 0.00in /  0mm 72 W/m2
08:44 51.6 °F /  10.9 °C 48.7 °F /  9.3 °C 30.02in /  1016.5hPa SSW 4.3mph /  6.9km/h 9mph /  14.5km/h 90% 0.00in /  0mm 79 W/m2
08:49 51.7 °F /  10.9 °C 48.8 °F /  9.3 °C 30.03in /  1016.8hPa SW 2.8mph /  4.5km/h 7mph /  11.3km/h 90% 0.00in /  0mm 76 W/m2
08:54 51.8 °F /  11 °C 49 °F /  9.4 °C 30.03in /  1016.8hPa SW 3.7mph /  6km/h 8mph /  12.9km/h 90% 0.00in /  0mm 77 W/m2
08:59 52 °F /  11.1 °C 49.1 °F /  9.5 °C 30.03in /  1016.8hPa SSW 6.2mph /  10km/h 11mph /  17.7km/h 90% 0.00in /  0mm 76 W/m2
09:04 52 °F /  11.1 °C 49.1 °F /  9.5 °C 30.03in /  1016.8hPa SW 5.4mph /  8.7km/h 10mph /  16.1km/h 90% 0.00in /  0mm 97 W/m2
09:09 52 °F /  11.1 °C 49.1 °F /  9.5 °C 30.03in /  1016.8hPa SW 5.8mph /  9.3km/h 9mph /  14.5km/h 90% 0.00in /  0mm 102 W/m2
09:14 52 °F /  11.1 °C 49.1 °F /  9.5 °C 30.03in /  1016.8hPa SSW 4.9mph /  7.9km/h 9mph /  14.5km/h 90% 0.00in /  0mm 130 W/m2
09:19 52.2 °F /  11.2 °C 49.3 °F /  9.6 °C 30.03in /  1016.8hPa WSW 5.3mph /  8.5km/h 10mph /  16.1km/h 90% 0.00in /  0mm 120 W/m2
09:24 52.2 °F /  11.2 °C 49.3 °F /  9.6 °C 30.03in /  1016.8hPa SW 7.6mph /  12.2km/h 12mph /  19.3km/h 90% 0.00in /  0mm 90 W/m2
09:29 52.2 °F /  11.2 °C 49.3 °F /  9.6 °C 30.03in /  1016.8hPa SSW 4mph /  6.4km/h 10mph /  16.1km/h 90% 0.00in /  0mm 105 W/m2
09:34 52.2 °F /  11.2 °C 49.3 °F /  9.6 °C 30.03in /  1016.8hPa SW 6mph /  9.7km/h 11mph /  17.7km/h 90% 0.00in /  0mm 111 W/m2
09:39 52.2 °F /  11.2 °C 49.4 °F /  9.7 °C 30.03in /  1016.8hPa SW 6.5mph /  10.5km/h 13mph /  20.9km/h 90% 0.00in /  0mm 104 W/m2
09:44 52.3 °F /  11.3 °C 49.5 °F /  9.7 °C 30.03in /  1016.8hPa SW 6.8mph /  10.9km/h 10mph /  16.1km/h 90% 0.00in /  0mm 120 W/m2
09:49 52.4 °F /  11.3 °C 49.5 °F /  9.7 °C 30.03in /  1016.8hPa SW 5.3mph /  8.5km/h 10mph /  16.1km/h 89.8% 0.00in /  0mm 125 W/m2
09:54 52.5 °F /  11.4 °C 49.5 °F /  9.7 °C 30.03in /  1016.8hPa SW 5.4mph /  8.7km/h 11mph /  17.7km/h 89% 0.00in /  0mm 125 W/m2
09:59 52.6 °F /  11.4 °C 49.5 °F /  9.7 °C 30.03in /  1016.8hPa SSW 3.2mph /  5.1km/h 11mph /  17.7km/h 89.4% 0.00in /  0mm 88 W/m2
10:04 52.7 °F /  11.5 °C 49.5 °F /  9.7 °C 30.03in /  1016.8hPa SSW 5.2mph /  8.4km/h 12mph /  19.3km/h 89% 0.00in /  0mm 91 W/m2
10:09 52.6 °F /  11.4 °C 49.5 °F /  9.7 °C 30.03in /  1016.8hPa SW 9.2mph /  14.8km/h 13mph /  20.9km/h 89% 0.00in /  0mm 88 W/m2
10:14 52.5 °F /  11.4 °C 49.5 °F /  9.7 °C 30.03in /  1016.8hPa SW 7mph /  11.3km/h 11mph /  17.7km/h 89% 0.00in /  0mm 84 W/m2
10:19 52.5 °F /  11.4 °C 49.5 °F /  9.7 °C 30.03in /  1016.8hPa SW 5.6mph /  9km/h 12mph /  19.3km/h 89% 0.00in /  0mm 81 W/m2
10:24 52.5 °F /  11.4 °C 49.5 °F /  9.7 °C 30.03in /  1016.8hPa SW 6mph /  9.7km/h 9mph /  14.5km/h 89% 0.00in /  0mm 81 W/m2
10:29 52.5 °F /  11.4 °C 49.5 °F /  9.7 °C 30.04in /  1017.2hPa SW 6.7mph /  10.8km/h 13mph /  20.9km/h 89% 0.00in /  0mm 88 W/m2
10:34 52.5 °F /  11.4 °C 49.5 °F /  9.7 °C 30.03in /  1016.8hPa SW 4.7mph /  7.6km/h 10mph /  16.1km/h 89% 0.00in /  0mm 125 W/m2
10:39 52.5 °F /  11.4 °C 49.5 °F /  9.7 °C 30.03in /  1016.8hPa SW 7.6mph /  12.2km/h 12mph /  19.3km/h 89% 0.00in /  0mm 130 W/m2
10:44 52.5 °F /  11.4 °C 49.5 °F /  9.7 °C 30.04in /  1017.2hPa SW 5.4mph /  8.7km/h 12mph /  19.3km/h 89% 0.00in /  0mm 121 W/m2
10:49 52.7 °F /  11.5 °C 49.5 °F /  9.7 °C 30.03in /  1016.8hPa SW 5.4mph /  8.7km/h 8mph /  12.9km/h 89% 0.00in /  0mm 121 W/m2
10:54 52.5 °F /  11.4 °C 49.5 °F /  9.7 °C 30.03in /  1016.8hPa SW 5.3mph /  8.5km/h 9mph /  14.5km/h 89% 0.00in /  0mm 95 W/m2
10:59 52.6 °F /  11.4 °C 49.5 °F /  9.7 °C 30.03in /  1016.8hPa SW 6.6mph /  10.6km/h 11mph /  17.7km/h 89% 0.00in /  0mm 127 W/m2
11:04 52.5 °F /  11.4 °C 49.5 °F /  9.7 °C 30.03in /  1016.8hPa SW 6.9mph /  11.1km/h 12mph /  19.3km/h 89% 0.00in /  0mm 142 W/m2
11:09 52.7 °F /  11.5 °C 49.5 °F /  9.7 °C 30.03in /  1016.8hPa SW 4.6mph /  7.4km/h 10mph /  16.1km/h 89% 0.00in /  0mm 146 W/m2
11:14 52.9 °F /  11.6 °C 49.6 °F /  9.8 °C 30.03in /  1016.8hPa SW 4.3mph /  6.9km/h 8mph /  12.9km/h 89% 0.00in /  0mm 146 W/m2
11:19 53.1 °F /  11.7 °C 49.8 °F /  9.9 °C 30.03in /  1016.8hPa SSW 3.6mph /  5.8km/h 8mph /  12.9km/h 89% 0.00in /  0mm 190 W/m2
11:24 53.1 °F /  11.7 °C 49.9 °F /  9.9 °C 30.03in /  1016.8hPa SW 4.5mph /  7.2km/h 11mph /  17.7km/h 89% 0.00in /  0mm 190 W/m2
11:29 53.1 °F /  11.7 °C 49.8 °F /  9.9 °C 30.03in /  1016.8hPa SSW 8.2mph /  13.2km/h 13mph /  20.9km/h 89% 0.00in /  0mm 163 W/m2
11:34 53 °F /  11.7 °C 49.7 °F /  9.8 °C 30.03in /  1016.8hPa SSW 6mph /  9.7km/h 11mph /  17.7km/h 89% 0.00in /  0mm 181 W/m2
11:39 52.8 °F /  11.6 °C 49.6 °F /  9.8 °C 30.03in /  1016.8hPa SW 9.7mph /  15.6km/h 13mph /  20.9km/h 89% 0.00in /  0mm 218 W/m2
11:44 52.8 °F /  11.6 °C 49.9 °F /  9.9 °C 30.03in /  1016.8hPa SW 5.2mph /  8.4km/h 13mph /  20.9km/h 89.8% 0.00in /  0mm 285 W/m2
11:49 53.1 °F /  11.7 °C 50.2 °F /  10.1 °C 30.03in /  1016.8hPa SW 4.5mph /  7.2km/h 11mph /  17.7km/h 90% 0.00in /  0mm 271 W/m2
11:54 53.1 °F /  11.7 °C 50.3 °F /  10.2 °C 30.03in /  1016.8hPa SSW 4.1mph /  6.6km/h 12mph /  19.3km/h 90% 0.00in /  0mm 186 W/m2
11:59 53.1 °F /  11.7 °C 50.2 °F /  10.1 °C 30.03in /  1016.8hPa SW 5.5mph /  8.9km/h 12mph /  19.3km/h 90% 0.00in /  0mm 192 W/m2
12:04 53 °F /  11.7 °C 50.1 °F /  10.1 °C 30.02in /  1016.5hPa SSW 8.2mph /  13.2km/h 14mph /  22.5km/h 90% 0.00in /  0mm 206 W/m2
12:09 52.9 °F /  11.6 °C 50 °F /  10 °C 30.02in /  1016.5hPa SW 6.1mph /  9.8km/h 13mph /  20.9km/h 90% 0.00in /  0mm 207 W/m2
12:14 53.1 °F /  11.7 °C 50.2 °F /  10.1 °C 30.02in /  1016.5hPa SSW 5.2mph /  8.4km/h 12mph /  19.3km/h 90% 0.00in /  0mm 211 W/m2
12:19 53.1 °F /  11.7 °C 50.2 °F /  10.1 °C 30.02in /  1016.5hPa SW 6.2mph /  10km/h 12mph /  19.3km/h 90% 0.00in /  0mm 218 W/m2
12:24 53.2 °F /  11.8 °C 50.2 °F /  10.1 °C 30.02in /  1016.5hPa SW 7.2mph /  11.6km/h 13mph /  20.9km/h 89.4% 0.00in /  0mm 241 W/m2
12:29 53.5 °F /  11.9 °C 50.3 °F /  10.2 °C 30.02in /  1016.5hPa SW 3.7mph /  6km/h 9mph /  14.5km/h 89% 0.00in /  0mm 232 W/m2
12:34 53.7 °F /  12.1 °C 50.5 °F /  10.3 °C 30.02in /  1016.5hPa SW 3.9mph /  6.3km/h 8mph /  12.9km/h 89% 0.00in /  0mm 230 W/m2
12:39 53.5 °F /  11.9 °C 50.3 °F /  10.2 °C 30.02in /  1016.5hPa SW 5.7mph /  9.2km/h 11mph /  17.7km/h 89% 0.00in /  0mm 214 W/m2
12:44 53.4 °F /  11.9 °C 50.2 °F /  10.1 °C 30.01in /  1016.1hPa SW 4mph /  6.4km/h 11mph /  17.7km/h 89% 0.00in /  0mm 214 W/m2
12:49 53.3 °F /  11.8 °C 50.1 °F /  10.1 °C 30.01in /  1016.1hPa SSW 5.7mph /  9.2km/h 11mph /  17.7km/h 89% 0.00in /  0mm 214 W/m2
12:54 53.3 °F /  11.8 °C 50.2 °F /  10.1 °C 30.01in /  1016.1hPa SSW 4.8mph /  7.7km/h 9mph /  14.5km/h 89.2% 0.00in /  0mm 186 W/m2
12:59 53.2 °F /  11.8 °C 50 °F /  10 °C 30.01in /  1016.1hPa SSW 6.1mph /  9.8km/h 10mph /  16.1km/h 89% 0.00in /  0mm 171 W/m2
13:04 53.1 °F /  11.7 °C 50 °F /  10 °C 30.01in /  1016.1hPa SW 6.4mph /  10.3km/h 12mph /  19.3km/h 89.6% 0.00in /  0mm 195 W/m2
13:09 53.1 °F /  11.7 °C 50.3 °F /  10.2 °C 30.01in /  1016.1hPa SW 4.6mph /  7.4km/h 12mph /  19.3km/h 90% 0.00in /  0mm 225 W/m2
13:14 53.2 °F /  11.8 °C 50.4 °F /  10.2 °C 30.01in /  1016.1hPa SW 4.9mph /  7.9km/h 10mph /  16.1km/h 90% 0.00in /  0mm 218 W/m2
13:19 53.4 °F /  11.9 °C 50.5 °F /  10.3 °C 30.01in /  1016.1hPa SW 4mph /  6.4km/h 8mph /  12.9km/h 90% 0.00in /  0mm 179 W/m2
13:24 53.4 °F /  11.9 °C 50.4 °F /  10.2 °C 30.01in /  1016.1hPa SW 6.2mph /  10km/h 14mph /  22.5km/h 89.8% 0.00in /  0mm 158 W/m2
13:29 53.4 °F /  11.9 °C 50.2 °F /  10.1 °C 30.01in /  1016.1hPa SW 6.2mph /  10km/h 14mph /  22.5km/h 89.2% 0.00in /  0mm 163 W/m2
13:34 53.4 °F /  11.9 °C 50.5 °F /  10.3 °C 30.01in /  1016.1hPa SSW 2.9mph /  4.7km/h 8mph /  12.9km/h 90% 0.00in /  0mm 193 W/m2
13:39 53.6 °F /  12 °C 50.7 °F /  10.4 °C 30.00in /  1015.8hPa SW 2.9mph /  4.7km/h 6mph /  9.7km/h 90% 0.00in /  0mm 199 W/m2
13:44 53.8 °F /  12.1 °C 50.9 °F /  10.5 °C 30.00in /  1015.8hPa South 3.6mph /  5.8km/h 6mph /  9.7km/h 90% 0.00in /  0mm 167 W/m2
13:49 53.6 °F /  12 °C 50.7 °F /  10.4 °C 30.00in /  1015.8hPa SSW 3.3mph /  5.3km/h 7mph /  11.3km/h 90% 0.00in /  0mm 171 W/m2
13:54 53.8 °F /  12.1 °C 50.9 °F /  10.5 °C 30.00in /  1015.8hPa South 3mph /  4.8km/h 5mph /  8km/h 90% 0.00in /  0mm 146 W/m2
13:59 53.7 °F /  12.1 °C 50.8 °F /  10.4 °C 30.00in /  1015.8hPa South 4.4mph /  7.1km/h 8mph /  12.9km/h 90% 0.00in /  0mm 153 W/m2
14:04 53.5 °F /  11.9 °C 50.6 °F /  10.3 °C 30.00in /  1015.8hPa SSW 5.3mph /  8.5km/h 11mph /  17.7km/h 90% 0.00in /  0mm 155 W/m2
14:09 53.4 °F /  11.9 °C 50.5 °F /  10.3 °C 30.00in /  1015.8hPa SW 4.8mph /  7.7km/h 9mph /  14.5km/h 90% 0.00in /  0mm 125 W/m2
14:14 53.7 °F /  12.1 °C 50.8 °F /  10.4 °C 30.00in /  1015.8hPa SSW 3.2mph /  5.1km/h 8mph /  12.9km/h 90% 0.00in /  0mm 132 W/m2
14:19 53.7 °F /  12.1 °C 50.8 °F /  10.4 °C 30.00in /  1015.8hPa SW 4.6mph /  7.4km/h 8mph /  12.9km/h 90% 0.00in /  0mm 123 W/m2
14:24 53.4 °F /  11.9 °C 50.5 °F /  10.3 °C 30.00in /  1015.8hPa SSW 6.6mph /  10.6km/h 11mph /  17.7km/h 90% 0.00in /  0mm 114 W/m2
14:29 53.2 °F /  11.8 °C 50.3 °F /  10.2 °C 29.99in /  1015.5hPa SSW 4.2mph /  6.8km/h 11mph /  17.7km/h 90% 0.00in /  0mm 155 W/m2
14:34 53.2 °F /  11.8 °C 50.4 °F /  10.2 °C 29.99in /  1015.5hPa SSW 5mph /  8km/h 8mph /  12.9km/h 90% 0.00in /  0mm 141 W/m2
14:39 53.2 °F /  11.8 °C 50.4 °F /  10.2 °C 29.99in /  1015.5hPa SSW 2.9mph /  4.7km/h 9mph /  14.5km/h 90% 0.00in /  0mm 76 W/m2
14:44 53.3 °F /  11.8 °C 50.5 °F /  10.3 °C 29.99in /  1015.5hPa SSW 3.6mph /  5.8km/h 7mph /  11.3km/h 90% 0.00in /  0mm 81 W/m2
14:49 53.4 °F /  11.9 °C 50.5 °F /  10.3 °C 29.99in /  1015.5hPa South 3.7mph /  6km/h 8mph /  12.9km/h 90% 0.00in /  0mm 100 W/m2
14:54 53.2 °F /  11.8 °C 50.4 °F /  10.2 °C 29.99in /  1015.5hPa SSW 6.8mph /  10.9km/h 12mph /  19.3km/h 90% 0.01in /  0.25mm 97 W/m2
14:59 53 °F /  11.7 °C 50.1 °F /  10.1 °C 29.99in /  1015.5hPa SSW 4.9mph /  7.9km/h 11mph /  17.7km/h 90% 0.01in /  0.25mm 95 W/m2
15:04 52.7 °F /  11.5 °C 49.8 °F /  9.9 °C 29.99in /  1015.5hPa South 4.6mph /  7.4km/h 10mph /  16.1km/h 90% 0.01in /  0.25mm 60 W/m2
15:09 52.5 °F /  11.4 °C 49.6 °F /  9.8 °C 29.99in /  1015.5hPa SSW 2.6mph /  4.2km/h 6mph /  9.7km/h 90% 0.01in /  0.25mm 56 W/m2
15:14 52.5 °F /  11.4 °C 49.8 °F /  9.9 °C 29.99in /  1015.5hPa South 4.5mph /  7.2km/h 11mph /  17.7km/h 90.4% 0.01in /  0.25mm 46 W/m2
15:19 52.3 °F /  11.3 °C 49.8 °F /  9.9 °C 29.99in /  1015.5hPa SSW 4.1mph /  6.6km/h 11mph /  17.7km/h 91% 0.01in /  0.25mm 42 W/m2
15:24 52.3 °F /  11.3 °C 49.8 °F /  9.9 °C 29.99in /  1015.5hPa South 2.9mph /  4.7km/h 7mph /  11.3km/h 91% 0.01in /  0.25mm 42 W/m2
15:29 52.3 °F /  11.3 °C 49.8 °F /  9.9 °C 29.98in /  1015.1hPa SSW 3.3mph /  5.3km/h 8mph /  12.9km/h 91% 0.01in /  0.25mm 37 W/m2
15:34 52.2 °F /  11.2 °C 49.6 °F /  9.8 °C 29.98in /  1015.1hPa SSW 6.8mph /  10.9km/h 11mph /  17.7km/h 91% 0.01in /  0.25mm 33 W/m2
15:39 52 °F /  11.1 °C 49.5 °F /  9.7 °C 29.98in /  1015.1hPa South 8.6mph /  13.8km/h 12mph /  19.3km/h 91% 0.01in /  0.25mm 35 W/m2
15:44 51.8 °F /  11 °C 49.3 °F /  9.6 °C 29.98in /  1015.1hPa SSW 7.4mph /  11.9km/h 12mph /  19.3km/h 91% 0.01in /  0.25mm 26 W/m2
15:49 51.6 °F /  10.9 °C 49.1 °F /  9.5 °C 29.98in /  1015.1hPa SW 3.7mph /  6km/h 12mph /  19.3km/h 91% 0.01in /  0.25mm 23 W/m2
15:54 51.6 °F /  10.9 °C 49.1 °F /  9.5 °C 29.98in /  1015.1hPa South 5.2mph /  8.4km/h 12mph /  19.3km/h 91% 0.01in /  0.25mm 25 W/m2
15:59 51.5 °F /  10.8 °C 49 °F /  9.4 °C 29.99in /  1015.5hPa SSW 5mph /  8km/h 11mph /  17.7km/h 91% 0.01in /  0.25mm 30 W/m2
16:04 51.4 °F /  10.8 °C 49.2 °F /  9.6 °C 29.98in /  1015.1hPa South 4mph /  6.4km/h 9mph /  14.5km/h 92% 0.01in /  0.25mm 33 W/m2
16:09 51.3 °F /  10.7 °C 49.1 °F /  9.5 °C 29.98in /  1015.1hPa South 1.7mph /  2.7km/h 9mph /  14.5km/h 92% 0.02in /  0.51mm 33 W/m2
16:14 51.3 °F /  10.7 °C 49.1 °F /  9.5 °C 29.98in /  1015.1hPa SSW 5mph /  8km/h 10mph /  16.1km/h 92% 0.02in /  0.51mm 30 W/m2
16:19 51.3 °F /  10.7 °C 49.1 °F /  9.5 °C 29.98in /  1015.1hPa SSW 1.3mph /  2.1km/h 7mph /  11.3km/h 92% 0.02in /  0.51mm 23 W/m2
16:24 51.3 °F /  10.7 °C 49.1 °F /  9.5 °C 29.98in /  1015.1hPa SSW 4.4mph /  7.1km/h 9mph /  14.5km/h 92% 0.02in /  0.51mm 28 W/m2
16:29 51.2 °F /  10.7 °C 49 °F /  9.4 °C 29.98in /  1015.1hPa SSW 4.2mph /  6.8km/h 10mph /  16.1km/h 92% 0.02in /  0.51mm 33 W/m2
16:34 51.1 °F /  10.6 °C 48.9 °F /  9.4 °C 29.97in /  1014.8hPa SSW 3.5mph /  5.6km/h 10mph /  16.1km/h 92% 0.02in /  0.51mm 47 W/m2
16:39 51.2 °F /  10.7 °C 49 °F /  9.4 °C 29.97in /  1014.8hPa South 3.2mph /  5.1km/h 12mph /  19.3km/h 92% 0.02in /  0.51mm 53 W/m2
16:44 51.1 °F /  10.6 °C 48.9 °F /  9.4 °C 29.97in /  1014.8hPa SSW 3.9mph /  6.3km/h 12mph /  19.3km/h 92% 0.03in /  0.76mm 53 W/m2
16:49 51 °F /  10.6 °C 48.8 °F /  9.3 °C 29.97in /  1014.8hPa SSW 5mph /  8km/h 11mph /  17.7km/h 92% 0.03in /  0.76mm 40 W/m2
16:54 51.1 °F /  10.6 °C 48.9 °F /  9.4 °C 29.97in /  1014.8hPa SW 4mph /  6.4km/h 8mph /  12.9km/h 92% 0.03in /  0.76mm 30 W/m2
16:59 51.1 °F /  10.6 °C 48.9 °F /  9.4 °C 29.97in /  1014.8hPa SSW 2.5mph /  4km/h 6mph /  9.7km/h 92% 0.03in /  0.76mm 23 W/m2
17:04 50.9 °F /  10.5 °C 48.7 °F /  9.3 °C 29.97in /  1014.8hPa SSE 3.6mph /  5.8km/h 8mph /  12.9km/h 92% 0.02in /  0.51mm 19 W/m2
17:09 50.7 °F /  10.4 °C 48.6 °F /  9.2 °C 29.97in /  1014.8hPa SSW 5.3mph /  8.5km/h 12mph /  19.3km/h 92% 0.02in /  0.51mm 21 W/m2
17:14 50.7 °F /  10.4 °C 48.6 °F /  9.2 °C 29.97in /  1014.8hPa SSW 7mph /  11.3km/h 11mph /  17.7km/h 92% 0.02in /  0.51mm 19 W/m2
17:19 50.7 °F /  10.4 °C 48.6 °F /  9.2 °C 29.97in /  1014.8hPa SW 5.6mph /  9km/h 13mph /  20.9km/h 92% 0.02in /  0.51mm 16 W/m2
17:24 50.7 °F /  10.4 °C 48.6 °F /  9.2 °C 29.97in /  1014.8hPa SW 5.5mph /  8.9km/h 9mph /  14.5km/h 92% 0.01in /  0.25mm 18 W/m2
17:29 50.7 °F /  10.4 °C 48.6 °F /  9.2 °C 29.97in /  1014.8hPa South 6.2mph /  10km/h 11mph /  17.7km/h 92% 0.01in /  0.25mm 18 W/m2
17:34 50.7 °F /  10.4 °C 48.6 °F /  9.2 °C 29.97in /  1014.8hPa SW 4.3mph /  6.9km/h 13mph /  20.9km/h 92% 0.01in /  0.25mm 12 W/m2
17:39 50.7 °F /  10.4 °C 48.6 °F /  9.2 °C 29.97in /  1014.8hPa SW 5.6mph /  9km/h 13mph /  20.9km/h 92% 0.01in /  0.25mm 7 W/m2
17:44 50.6 °F /  10.3 °C 48.5 °F /  9.2 °C 29.97in /  1014.8hPa SW 7mph /  11.3km/h 13mph /  20.9km/h 92% 0.01in /  0.25mm 9 W/m2
17:49 50.5 °F /  10.3 °C 48.4 °F /  9.1 °C 29.97in /  1014.8hPa SW 3.9mph /  6.3km/h 8mph /  12.9km/h 92% 0.02in /  0.51mm 12 W/m2
17:54 50.5 °F /  10.3 °C 48.3 °F /  9.1 °C 29.97in /  1014.8hPa South 3.2mph /  5.1km/h 9mph /  14.5km/h 92% 0.02in /  0.51mm 7 W/m2
17:59 50.4 °F /  10.2 °C 48.2 °F /  9 °C 29.97in /  1014.8hPa SSW 5mph /  8km/h 13mph /  20.9km/h 92% 0.02in /  0.51mm 5 W/m2
18:04 50.4 °F /  10.2 °C 48.2 °F /  9 °C 29.97in /  1014.8hPa SW 4.5mph /  7.2km/h 8mph /  12.9km/h 92% 0.02in /  0.51mm 0 W/m2
18:09 50.4 °F /  10.2 °C 48.2 °F /  9 °C 29.97in /  1014.8hPa SW 5mph /  8km/h 11mph /  17.7km/h 92% 0.02in /  0.51mm 0 W/m2
18:14 50.4 °F /  10.2 °C 48.2 °F /  9 °C 29.97in /  1014.8hPa SSW 7.2mph /  11.6km/h 12mph /  19.3km/h 92% 0.02in /  0.51mm 0 W/m2
18:19 50.4 °F /  10.2 °C 48.2 °F /  9 °C 29.97in /  1014.8hPa SW 5.8mph /  9.3km/h 14mph /  22.5km/h 92% 0.02in /  0.51mm 0 W/m2
18:24 50.4 °F /  10.2 °C 47.9 °F /  8.8 °C 29.97in /  1014.8hPa SSW 4mph /  6.4km/h 14mph /  22.5km/h 91.2% 0.02in /  0.51mm 0 W/m2
18:29 50.4 °F /  10.2 °C 47.8 °F /  8.8 °C 29.97in /  1014.8hPa SW 6.8mph /  10.9km/h 10mph /  16.1km/h 91% 0.02in /  0.51mm 0 W/m2
18:34 50.4 °F /  10.2 °C 47.8 °F /  8.8 °C 29.97in /  1014.8hPa SSW 5.5mph /  8.9km/h 13mph /  20.9km/h 91% 0.02in /  0.51mm 0 W/m2
18:39 50.4 °F /  10.2 °C 47.8 °F /  8.8 °C 29.97in /  1014.8hPa South 6.1mph /  9.8km/h 13mph /  20.9km/h 91% 0.02in /  0.51mm 0 W/m2
18:44 50.4 °F /  10.2 °C 47.8 °F /  8.8 °C 29.97in /  1014.8hPa SSW 7.2mph /  11.6km/h 14mph /  22.5km/h 91% 0.02in /  0.51mm 0 W/m2
18:49 50.4 °F /  10.2 °C 47.8 °F /  8.8 °C 29.98in /  1015.1hPa South 4.9mph /  7.9km/h 11mph /  17.7km/h 91% 0.01in /  0.25mm 0 W/m2
18:54 50.4 °F /  10.2 °C 47.8 °F /  8.8 °C 29.98in /  1015.1hPa SSW 4.5mph /  7.2km/h 7mph /  11.3km/h 91% 0.00in /  0mm 0 W/m2
18:59 50.3 °F /  10.2 °C 47.8 °F /  8.8 °C 29.97in /  1014.8hPa SSW 3.6mph /  5.8km/h 8mph /  12.9km/h 91% 0.01in /  0.25mm 0 W/m2
19:04 50.2 °F /  10.1 °C 47.7 °F /  8.7 °C 29.97in /  1014.8hPa SSW 3.1mph /  5km/h 8mph /  12.9km/h 91% 0.01in /  0.25mm 0 W/m2
19:09 50.2 °F /  10.1 °C 47.7 °F /  8.7 °C 29.97in /  1014.8hPa SSW 2.6mph /  4.2km/h 6mph /  9.7km/h 91% 0.01in /  0.25mm 0 W/m2
19:14 50.2 °F /  10.1 °C 47.7 °F /  8.7 °C 29.97in /  1014.8hPa SSW 2mph /  3.2km/h 5mph /  8km/h 91% 0.01in /  0.25mm 0 W/m2
19:19 50.1 °F /  10.1 °C 47.6 °F /  8.7 °C 29.97in /  1014.8hPa SSW 4.6mph /  7.4km/h 9mph /  14.5km/h 91% 0.02in /  0.51mm 0 W/m2
19:24 50 °F /  10 °C 47.5 °F /  8.6 °C 29.97in /  1014.8hPa South 2.9mph /  4.7km/h 9mph /  14.5km/h 91% 0.02in /  0.51mm 0 W/m2
19:29 50 °F /  10 °C 47.5 °F /  8.6 °C 29.97in /  1014.8hPa SSW 3.1mph /  5km/h 6mph /  9.7km/h 91% 0.02in /  0.51mm 0 W/m2
19:34 49.8 °F /  9.9 °C 47.3 °F /  8.5 °C 29.97in /  1014.8hPa SSW 3mph /  4.8km/h 6mph /  9.7km/h 91% 0.02in /  0.51mm 0 W/m2
19:39 49.8 °F /  9.9 °C 47.3 °F /  8.5 °C 29.96in /  1014.4hPa South 3mph /  4.8km/h 7mph /  11.3km/h 91% 0.02in /  0.51mm 0 W/m2
19:44 50 °F /  10 °C 47.5 °F /  8.6 °C 29.96in /  1014.4hPa South 2.3mph /  3.7km/h 6mph /  9.7km/h 91% 0.03in /  0.76mm 0 W/m2
19:49 49.8 °F /  9.9 °C 47.3 °F /  8.5 °C 29.96in /  1014.4hPa South 3.6mph /  5.8km/h 7mph /  11.3km/h 91% 0.03in /  0.76mm 0 W/m2
19:54 49.8 °F /  9.9 °C 47.3 °F /  8.5 °C 29.97in /  1014.8hPa South 2.5mph /  4km/h 7mph /  11.3km/h 91% 0.03in /  0.76mm 0 W/m2
19:59 49.8 °F /  9.9 °C 47.3 °F /  8.5 °C 29.96in /  1014.4hPa South 3.3mph /  5.3km/h 7mph /  11.3km/h 91% 0.03in /  0.76mm 0 W/m2
20:04 49.8 °F /  9.9 °C 47.3 °F /  8.5 °C 29.96in /  1014.4hPa South 5.2mph /  8.4km/h 10mph /  16.1km/h 91% 0.02in /  0.51mm 0 W/m2
20:09 49.8 °F /  9.9 °C 47.3 °F /  8.5 °C 29.96in /  1014.4hPa South 4mph /  6.4km/h 7mph /  11.3km/h 91% 0.02in /  0.51mm 0 W/m2
20:14 49.8 °F /  9.9 °C 47.3 °F /  8.5 °C 29.96in /  1014.4hPa South 3.3mph /  5.3km/h 6mph /  9.7km/h 91% 0.02in /  0.51mm 0 W/m2
20:19 49.8 °F /  9.9 °C 47.3 °F /  8.5 °C 29.96in /  1014.4hPa South 2.5mph /  4km/h 6mph /  9.7km/h 91% 0.03in /  0.76mm 0 W/m2
20:24 49.7 °F /  9.8 °C 47.2 °F /  8.4 °C 29.96in /  1014.4hPa South 3.7mph /  6km/h 11mph /  17.7km/h 91% 0.02in /  0.51mm 0 W/m2
20:29 49.6 °F /  9.8 °C 47.1 °F /  8.4 °C 29.96in /  1014.4hPa South 2.9mph /  4.7km/h 11mph /  17.7km/h 91% 0.02in /  0.51mm 0 W/m2
20:34 49.6 °F /  9.8 °C 47.1 °F /  8.4 °C 29.96in /  1014.4hPa South 2.4mph /  3.9km/h 5mph /  8km/h 91% 0.02in /  0.51mm 0 W/m2
20:39 49.6 °F /  9.8 °C 47.1 °F /  8.4 °C 29.95in /  1014.1hPa South 2.7mph /  4.3km/h 7mph /  11.3km/h 91% 0.02in /  0.51mm 0 W/m2
20:44 49.6 °F /  9.8 °C 47.1 °F /  8.4 °C 29.95in /  1014.1hPa SSE 3.3mph /  5.3km/h 7mph /  11.3km/h 91% 0.02in /  0.51mm 0 W/m2
20:49 49.6 °F /  9.8 °C 47.1 °F /  8.4 °C 29.95in /  1014.1hPa South 2.1mph /  3.4km/h 5mph /  8km/h 91% 0.01in /  0.25mm 0 W/m2
20:54 49.6 °F /  9.8 °C 47.1 °F /  8.4 °C 29.95in /  1014.1hPa SSW 2.7mph /  4.3km/h 6mph /  9.7km/h 91% 0.01in /  0.25mm 0 W/m2
20:59 49.6 °F /  9.8 °C 47.1 °F /  8.4 °C 29.95in /  1014.1hPa SSW 3.3mph /  5.3km/h 7mph /  11.3km/h 91% 0.01in /  0.25mm 0 W/m2
21:04 49.6 °F /  9.8 °C 47 °F /  8.3 °C 29.95in /  1014.1hPa South 3.2mph /  5.1km/h 7mph /  11.3km/h 90.6% 0.01in /  0.25mm 0 W/m2
21:09 49.6 °F /  9.8 °C 46.9 °F /  8.3 °C 29.95in /  1014.1hPa SSW 3.9mph /  6.3km/h 7mph /  11.3km/h 90.4% 0.01in /  0.25mm 0 W/m2
21:14 49.6 °F /  9.8 °C 46.8 °F /  8.2 °C 29.94in /  1013.8hPa South 4.6mph /  7.4km/h 10mph /  16.1km/h 90% 0.01in /  0.25mm 0 W/m2
21:19 49.6 °F /  9.8 °C 46.8 °F /  8.2 °C 29.94in /  1013.8hPa South 3.2mph /  5.1km/h 10mph /  16.1km/h 90% 0.01in /  0.25mm 0 W/m2
21:24 49.6 °F /  9.8 °C 46.8 °F /  8.2 °C 29.94in /  1013.8hPa South 2.5mph /  4km/h 6mph /  9.7km/h 90% 0.00in /  0mm 0 W/m2
21:29 49.6 °F /  9.8 °C 46.8 °F /  8.2 °C 29.94in /  1013.8hPa South 4.3mph /  6.9km/h 13mph /  20.9km/h 90% 0.00in /  0mm 0 W/m2
21:34 49.8 °F /  9.9 °C 46.9 °F /  8.3 °C 29.93in /  1013.4hPa South 3.7mph /  6km/h 7mph /  11.3km/h 90% 0.00in /  0mm 0 W/m2
21:39 49.8 °F /  9.9 °C 46.9 °F /  8.3 °C 29.93in /  1013.4hPa SSE 2.5mph /  4km/h 8mph /  12.9km/h 89.8% 0.00in /  0mm 0 W/m2
21:44 49.8 °F /  9.9 °C 46.9 °F /  8.3 °C 29.93in /  1013.4hPa SSE 2mph /  3.2km/h 7mph /  11.3km/h 89.8% 0.00in /  0mm 0 W/m2
21:49 49.8 °F /  9.9 °C 46.8 °F /  8.2 °C 29.93in /  1013.4hPa South 2.6mph /  4.2km/h 6mph /  9.7km/h 89% 0.00in /  0mm 0 W/m2
21:54 49.8 °F /  9.9 °C 46.8 °F /  8.2 °C 29.93in /  1013.4hPa South 1.2mph /  1.9km/h 6mph /  9.7km/h 89% 0.00in /  0mm 0 W/m2
21:59 49.6 °F /  9.8 °C 46.6 °F /  8.1 °C 29.93in /  1013.4hPa SSE 6.5mph /  10.5km/h 13mph /  20.9km/h 89% 0.00in /  0mm 0 W/m2
22:04 49.8 °F /  9.9 °C 46.8 °F /  8.2 °C 29.93in /  1013.4hPa South 3.3mph /  5.3km/h 13mph /  20.9km/h 89% 0.00in /  0mm 0 W/m2
22:09 49.7 °F /  9.8 °C 46.7 °F /  8.2 °C 29.93in /  1013.4hPa SSW 2.6mph /  4.2km/h 9mph /  14.5km/h 89% 0.00in /  0mm 0 W/m2
22:14 49.6 °F /  9.8 °C 46.6 °F /  8.1 °C 29.92in /  1013.1hPa South 4.1mph /  6.6km/h 8mph /  12.9km/h 89% 0.01in /  0.25mm 0 W/m2
22:19 49.6 °F /  9.8 °C 46.6 °F /  8.1 °C 29.92in /  1013.1hPa South 4.6mph /  7.4km/h 9mph /  14.5km/h 89% 0.01in /  0.25mm 0 W/m2
22:24 49.6 °F /  9.8 °C 46.6 °F /  8.1 °C 29.92in /  1013.1hPa South 4.8mph /  7.7km/h 11mph /  17.7km/h 89% 0.01in /  0.25mm 0 W/m2
22:29 49.5 °F /  9.7 °C 46.4 °F /  8 °C 29.92in /  1013.1hPa SSE 4.2mph /  6.8km/h 9mph /  14.5km/h 89% 0.01in /  0.25mm 0 W/m2
22:34 49.5 °F /  9.7 °C 46.4 °F /  8 °C 29.92in /  1013.1hPa South 3.6mph /  5.8km/h 10mph /  16.1km/h 89% 0.01in /  0.25mm 0 W/m2
22:39 49.5 °F /  9.7 °C 46.4 °F /  8 °C 29.92in /  1013.1hPa South 2.7mph /  4.3km/h 8mph /  12.9km/h 89% 0.01in /  0.25mm 0 W/m2
22:44 49.5 °F /  9.7 °C 46.4 °F /  8 °C 29.91in /  1012.8hPa South 4mph /  6.4km/h 8mph /  12.9km/h 89% 0.01in /  0.25mm 0 W/m2
22:49 49.5 °F /  9.7 °C 46.4 °F /  8 °C 29.91in /  1012.8hPa SSW 3.6mph /  5.8km/h 10mph /  16.1km/h 89% 0.02in /  0.51mm 0 W/m2
22:54 49.4 °F /  9.7 °C 46.3 °F /  7.9 °C 29.91in /  1012.8hPa SSW 3.3mph /  5.3km/h 9mph /  14.5km/h 89% 0.02in /  0.51mm 0 W/m2
22:59 49.3 °F /  9.6 °C 46.4 °F /  8 °C 29.91in /  1012.8hPa South 2mph /  3.2km/h 5mph /  8km/h 89.8% 0.02in /  0.51mm 0 W/m2
23:04 49.3 °F /  9.6 °C 46.4 °F /  8 °C 29.91in /  1012.8hPa SSW 5.8mph /  9.3km/h 13mph /  20.9km/h 90% 0.02in /  0.51mm 0 W/m2
23:09 49.3 °F /  9.6 °C 46.4 °F /  8 °C 29.91in /  1012.8hPa SSW 4.8mph /  7.7km/h 14mph /  22.5km/h 90% 0.02in /  0.51mm 0 W/m2
23:14 49.4 °F /  9.7 °C 46.5 °F /  8.1 °C 29.91in /  1012.8hPa SSW 4.1mph /  6.6km/h 8mph /  12.9km/h 90% 0.02in /  0.51mm 0 W/m2
23:19 49.3 °F /  9.6 °C 46.4 °F /  8 °C 29.91in /  1012.8hPa South 2.9mph /  4.7km/h 8mph /  12.9km/h 90% 0.02in /  0.51mm 0 W/m2
23:24 49.3 °F /  9.6 °C 46.4 °F /  8 °C 29.91in /  1012.8hPa South 5.2mph /  8.4km/h 11mph /  17.7km/h 90% 0.02in /  0.51mm 0 W/m2
23:29 49.3 °F /  9.6 °C 46.4 °F /  8 °C 29.90in /  1012.4hPa SSW 3.4mph /  5.5km/h 9mph /  14.5km/h 90% 0.02in /  0.51mm 0 W/m2
23:34 49.3 °F /  9.6 °C 46.4 °F /  8 °C 29.90in /  1012.4hPa South 4.7mph /  7.6km/h 11mph /  17.7km/h 90% 0.02in /  0.51mm 0 W/m2
23:39 49.3 °F /  9.6 °C 46.4 °F /  8 °C 29.90in /  1012.4hPa South 4.4mph /  7.1km/h 6mph /  9.7km/h 90% 0.02in /  0.51mm 0 W/m2
23:44 49.3 °F /  9.6 °C 46.4 °F /  8 °C 29.90in /  1012.4hPa SSE 5.1mph /  8.2km/h 13mph /  20.9km/h 90% 0.02in /  0.51mm 0 W/m2
23:48 49.3 °F /  9.6 °C 46.4 °F /  8 °C 29.89in /  1012.1hPa South 5mph /  8km/h 13mph /  20.9km/h 90% 0.01in /  0.25mm 0 W/m2
23:54 49.3 °F /  9.6 °C 46.4 °F /  8 °C 29.89in /  1012.1hPa South 4.4mph /  7.1km/h 11mph /  17.7km/h 90% 0.01in /  0.25mm 0 W/m2
23:59 49.3 °F /  9.6 °C 46.4 °F /  8 °C 29.89in /  1012.1hPa South 7mph /  11.3km/h 11mph /  17.7km/h 90% 0.01in /  0.25mm 0 W/m2
Bath Spa Weather
Compliments of Weather Underground - 2 mb